Etusivu
METAR-TAF:

METAR-TAF

Lentoasemat :

Clinton / Burns Flat, Oklahoma, Yhdysvallat

Leveyspiiri: 35-21-24N, Pituuspiiri: 099-12-13W, korkeus merenpinnasta: 585 m

Tämänhetkinen sää

Tämä raportti tehtiin 43 minuuttia sitten, kello 17.53 UTC
Tuuli 7 kn lounaasta
Lämpötila 6°C
Kosteus 56%
Ilmanpaine 1034 hPa
Näkyvyys: 16.1 km
selkeää

METAR: KCSM 201753Z AUTO 22007KT 10SM CLR 06/M02 A3053 RMK AO2 SLP348 I6000 T00561022 10056 21072 58004

Aika: 12:36 (18:36 UTC)

Sääennuste

Tämä raportti tehtiin 58 minuuttia sitten, kello 17.38 UTC
Ennuste voimassa 20. päivästä klo 18 UTC - 21. päivään klo 18 UTC
Tuuli 11 kn etelästä/lounaasta
Näkyvyys: 10 km
selkeää
From 21. päivästä klo 0400 UTC
Tuuli 11 kn idästä
Näkyvyys: 10 km
Hajanaisia pilviä 25000 ft:n korkeudessa
From 21. päivästä klo 1400 UTC
Tuuli 14 kn kaakosta
Näkyvyys: 10 km
Pilvistä 15000 ft:n korkeudessa

TAF: KCSM 201738Z 2018/2118 21011KT P6SM SKC FM210400 08011KT P6SM SCT250 FM211400 14014KT P6SM OVC150

Säähavainnot ja -ennusteet yli 4000 lentoasemalta (METAR- ja TAF-raportit).

Käytössä olevat sääasemat on merkitty karttaan keltaisilla ja punaisilla pisteillä.

Aseta hiiri pisteen päälle nähdäksesi sääaseman nimen.

Klikkaa sitten nähdäksesi säähavainnot ja -ennusteet.

Kartan vaihtaminen: klikkaa mustalla rastilla varustettuja vihreitä pisteitä, niin voit zoomata sisään; viivalla varustettua vihreää pistettä, niin voit zoomata ulos tai vihreitä nuolia, niin pääset viereisille kartoille.


METAR-TAF: